Time;durP1;ratioP1;P1;durP2;ratioP2;P2;SDS_P1;SDS_P2;PMS_P1;PMS_P2;Temp;Humidity;BMP_temperature;BMP_pressure;BME280_temperature;BME280_humidity;BME280_pressure;Samples;Min_cycle;Max_cycle;Signal;HPM_P1;HPM_P2
2022/10/06 00:01:54;;;;;;;1.73;0.80;;;;;;;5.49;72.76;100652.19;4924293;29;20052;-61
2022/10/06 00:04:50;;;;;;;2.97;0.85;;;;;;;5.59;72.34;100692.91;4922418;29;20064;-61
2022/10/06 00:07:48;;;;;;;1.52;0.80;;;;;;;5.66;72.64;100699.03;4922601;29;20115;-61
2022/10/06 00:13:29;;;;;;;2.90;0.63;;;;;;;6.25;72.88;100685.78;4928587;29;20056;-61
2022/10/06 00:16:23;;;;;;;3.85;0.90;;;;;;;6.51;72.01;100656.56;4926391;29;20378;-60
2022/10/06 00:19:11;;;;;;;2.85;0.93;;;;;;;6.89;71.05;100629.06;4926715;29;20056;-61
2022/10/06 00:22:02;;;;;;;3.00;1.05;;;;;;;7.54;70.00;100670.91;4927932;29;20088;-61
2022/10/06 00:24:54;;;;;;;2.80;1.00;;;;;;;7.91;68.74;100676.13;4928106;29;20048;-61
2022/10/06 00:27:41;;;;;;;0.88;0.60;;;;;;;7.72;67.25;100678.72;4927829;29;20063;-61
2022/10/06 00:30:21;;;;;;;4.68;0.70;;;;;;;7.40;65.82;100690.78;4933274;29;20044;-61
2022/10/06 00:32:58;;;;;;;2.38;0.70;;;;;;;7.17;66.61;100654.31;4926222;29;20071;-61
2022/10/06 00:35:47;;;;;;;1.25;0.80;;;;;;;7.03;66.79;100672.44;4927336;29;20044;-60
2022/10/06 00:38:25;;;;;;;5.68;1.00;;;;;;;6.68;65.80;100717.25;4926899;29;20044;-60
2022/10/06 00:41:23;;;;;;;3.00;1.00;;;;;;;5.86;67.03;100713.06;4927268;29;20060;-61
2022/10/06 00:44:06;;;;;;;2.80;0.75;;;;;;;5.82;68.64;100700.94;4927001;29;20052;-60
2022/10/06 00:46:47;;;;;;;6.05;1.83;;;;;;;6.03;70.29;100690.78;4927447;29;20339;-60
2022/10/06 00:49:32;;;;;;;2.90;1.10;;;;;;;6.20;67.05;100688.34;4927140;29;20062;-60
2022/10/06 00:52:16;;;;;;;3.28;1.40;;;;;;;6.32;63.47;100682.38;4926945;29;20052;-60
2022/10/06 00:55:08;;;;;;;3.00;0.75;;;;;;;6.61;65.90;100684.31;4915409;29;20056;-60
2022/10/06 00:58:14;;;;;;;0.95;0.70;;;;;;;6.81;64.14;100676.63;4926472;29;20056;-59
2022/10/06 01:00:53;;;;;;;2.55;0.60;;;;;;;6.75;61.67;100674.88;4925072;29;20043;-60
2022/10/06 01:03:33;;;;;;;3.20;0.80;;;;;;;6.81;64.38;100677.50;4925749;29;20048;-61
2022/10/06 01:06:21;;;;;;;4.03;1.35;;;;;;;6.54;65.28;100573.47;4925908;29;20078;-60
2022/10/06 01:11:49;;;;;;;1.08;0.55;;;;;;;7.43;63.89;100656.97;4925907;29;20066;-61
2022/10/06 01:14:35;;;;;;;5.72;0.73;;;;;;;7.55;64.38;100654.41;4926125;29;20062;-61
2022/10/06 01:17:15;;;;;;;1.67;0.65;;;;;;;7.62;64.84;100637.97;4886980;29;20069;-60
2022/10/06 01:23:09;;;;;;;1.05;0.77;;;;;;;7.84;63.05;100658.78;4849764;29;20218;-61
2022/10/06 01:25:57;;;;;;;2.45;0.75;;;;;;;7.87;62.35;100649.25;4849545;29;20334;-60
2022/10/06 01:31:37;;;;;;;2.08;1.13;;;;;;;7.63;62.69;100639.69;4849362;29;20113;-60
2022/10/06 01:34:33;;;;;;;0.75;0.60;;;;;;;7.59;58.62;100650.97;4849659;29;20045;-60
2022/10/06 01:37:24;;;;;;;0.70;0.60;;;;;;;7.64;59.32;100654.44;4848915;29;20054;-60
2022/10/06 01:40:09;;;;;;;1.08;0.55;;;;;;;7.77;58.72;100648.38;4849833;29;20046;-60
2022/10/06 01:46:06;;;;;;;1.50;0.90;;;;;;;7.82;55.80;100631.91;4849670;29;20119;-60
2022/10/06 01:52:13;;;;;;;1.35;0.75;;;;;;;8.13;55.54;100657.06;4849708;29;20050;-60
2022/10/06 01:54:55;;;;;;;8.73;0.85;;;;;;;8.19;55.04;100641.47;4872132;29;20057;-61
2022/10/06 01:58:03;;;;;;;1.92;0.70;;;;;;;8.37;56.44;100658.81;4888271;29;20080;-60
2022/10/06 02:00:44;;;;;;;1.65;0.77;;;;;;;8.53;56.24;100656.19;4867816;29;20045;-60
2022/10/06 02:03:26;;;;;;;3.80;0.70;;;;;;;8.57;55.64;100653.59;4887905;29;20048;-61
2022/10/06 02:06:12;;;;;;;5.05;0.80;;;;;;;8.52;54.97;100642.31;4888126;29;20060;-61
2022/10/06 02:09:06;;;;;;;2.85;0.82;;;;;;;8.50;54.66;100646.66;4873013;29;20052;-60
2022/10/06 02:12:04;;;;;;;3.38;0.80;;;;;;;8.39;54.59;100637.97;4887449;29;20077;-60
2022/10/06 02:15:27;;;;;;;2.25;1.10;;;;;;;8.28;54.75;100634.50;4886332;29;20091;-61
2022/10/06 02:18:14;;;;;;;3.83;0.70;;;;;;;8.02;52.80;100642.34;4897501;29;20070;-61
2022/10/06 02:20:54;;;;;;;1.15;0.73;;;;;;;7.60;52.90;100618.88;4925619;29;20457;-60
2022/10/06 02:23:37;;;;;;;5.10;0.60;;;;;;;7.65;54.18;100648.38;4899742;29;20341;-62
2022/10/06 02:26:48;;;;;;;2.28;0.85;;;;;;;7.60;52.04;100655.28;4924821;29;20086;-61
2022/10/06 02:29:40;;;;;;;2.60;0.80;;;;;;;7.61;53.30;100657.00;4925177;29;20104;-61
2022/10/06 02:32:24;;;;;;;2.22;0.75;;;;;;;7.69;55.00;100660.53;4924493;29;20386;-61
2022/10/06 02:35:05;;;;;;;3.00;1.00;;;;;;;7.80;54.45;100664.88;4925430;29;20202;-60
2022/10/06 02:38:02;;;;;;;2.50;0.57;;;;;;;7.91;52.10;100670.94;4924736;29;20145;-61
2022/10/06 02:40:44;;;;;;;2.08;0.70;;;;;;;7.94;51.37;100670.97;4925089;29;20317;-61
2022/10/06 02:43:27;;;;;;;0.80;0.60;;;;;;;7.87;49.01;100669.22;4924873;29;20111;-61
2022/10/06 02:49:35;;;;;;;4.38;0.80;;;;;;;7.91;50.04;100677.03;4925130;29;20068;-62
2022/10/06 02:52:29;;;;;;;3.28;0.70;;;;;;;7.84;48.94;100685.69;4923972;29;20063;-61
2022/10/06 02:58:13;;;;;;;2.05;0.75;;;;;;;7.63;45.94;100686.50;4924718;29;20100;-62
2022/10/06 03:00:47;;;;;;;5.75;1.05;;;;;;;7.39;46.98;100687.31;4923810;29;20048;-62
2022/10/06 03:03:37;;;;;;;2.67;0.60;;;;;;;7.27;48.51;100688.13;4924524;29;20043;-62
2022/10/06 03:06:24;;;;;;;2.88;0.90;;;;;;;7.20;48.27;100686.38;4923996;29;20094;-61
2022/10/06 03:09:29;;;;;;;3.60;0.80;;;;;;;7.28;48.86;100689.84;4924100;29;20048;-61
2022/10/06 03:12:22;;;;;;;2.33;0.70;;;;;;;7.41;48.12;100682.09;4894886;29;20115;-61
2022/10/06 03:15:08;;;;;;;1.27;0.70;;;;;;;7.38;44.88;100680.38;4924645;29;20064;-61
2022/10/06 03:17:55;;;;;;;4.20;0.77;;;;;;;7.56;45.95;100675.22;4923853;29;20067;-63
2022/10/06 03:20:53;;;;;;;2.38;0.70;;;;;;;7.84;47.72;100669.19;4909616;29;20304;-61
2022/10/06 03:29:37;;;;;;;4.57;0.80;;;;;;;7.50;49.22;100643.13;4924321;29;20108;-61
2022/10/06 03:32:22;;;;;;;3.47;0.57;;;;;;;7.63;49.67;100660.50;4923832;29;20040;-61
2022/10/06 03:37:45;;;;;;;0.95;0.60;;;;;;;8.04;51.21;100667.50;4924568;29;20075;-61
2022/10/06 03:40:23;;;;;;;1.83;0.80;;;;;;;8.31;48.11;100660.53;4924472;29;20337;-61
2022/10/06 03:43:17;;;;;;;4.28;0.60;;;;;;;8.52;50.04;100676.19;4924331;29;20137;-61
2022/10/06 03:48:58;;;;;;;1.90;0.65;;;;;;;8.32;47.16;100615.41;4928363;29;20064;-61
2022/10/06 03:54:47;;;;;;;3.35;0.52;;;;;;;8.53;45.79;100675.28;4928034;29;20325;-61
2022/10/06 03:57:26;;;;;;;1.65;0.60;;;;;;;8.11;43.44;100674.44;4927644;29;20099;-62
2022/10/06 04:00:15;;;;;;;;;;;;;;;7.87;44.36;100679.63;4928539;29;20056;-61
2022/10/06 04:02:54;;;;;;;3.45;0.73;;;;;;;7.81;44.94;100674.41;4928226;29;19976;-62
2022/10/06 04:06:01;;;;;;;7.00;0.88;;;;;;;8.10;47.01;100674.44;4928060;29;20254;-62
2022/10/06 04:09:04;;;;;;;2.70;0.90;;;;;;;8.05;45.02;100674.44;4927433;29;20314;-60
2022/10/06 04:14:36;;;;;;;3.40;0.63;;;;;;;7.92;46.75;100668.34;4927399;29;20044;-61
2022/10/06 04:17:33;;;;;;;2.35;0.80;;;;;;;7.70;46.16;100641.44;4927472;29;20168;-62
2022/10/06 04:20:28;;;;;;;2.92;0.90;;;;;;;7.89;46.49;100662.28;4926650;29;20326;-61
2022/10/06 04:23:08;;;;;;;1.65;0.80;;;;;;;8.05;44.23;100666.63;4927081;29;20048;-60
2022/10/06 04:29:27;;;;;;;4.50;0.85;;;;;;;7.82;47.16;100666.59;4925171;29;20047;-60
2022/10/06 04:32:33;;;;;;;1.45;0.70;;;;;;;8.02;46.99;100678.78;4911027;29;20040;-61
2022/10/06 04:35:18;;;;;;;1.67;0.57;;;;;;;8.20;45.48;100678.78;4927099;29;20040;-61
2022/10/06 04:38:03;;;;;;;1.85;0.65;;;;;;;8.33;45.72;100677.03;4926733;29;20060;-60
2022/10/06 04:40:39;;;;;;;2.13;0.65;;;;;;;8.41;44.60;100638.84;4926837;29;20048;-60
2022/10/06 04:43:38;;;;;;;3.70;0.70;;;;;;;8.70;44.49;100670.06;4926708;29;20063;-62
2022/10/06 04:49:25;;;;;;;3.72;0.98;;;;;;;8.46;45.02;100681.38;4926907;29;20071;-61
2022/10/06 04:52:14;;;;;;;3.75;0.77;;;;;;;8.36;46.50;100680.50;4926044;29;20048;-61
2022/10/06 04:54:57;;;;;;;2.17;0.60;;;;;;;8.40;45.41;100681.41;4926054;29;20040;-62
2022/10/06 04:57:44;;;;;;;3.42;0.63;;;;;;;8.44;45.66;100683.13;4926833;29;20053;-61
2022/10/06 05:00:26;;;;;;;3.60;0.80;;;;;;;8.26;44.65;100683.09;4925645;29;20108;-61
2022/10/06 05:03:11;;;;;;;1.75;0.57;;;;;;;7.94;44.61;100689.19;4926827;29;20040;-62
2022/10/06 05:05:52;;;;;;;1.85;0.75;;;;;;;7.83;45.23;100662.25;4926216;29;20048;-61
2022/10/06 05:08:58;;;;;;;7.47;1.40;;;;;;;8.05;43.69;100648.41;4926683;29;20043;-62
2022/10/06 05:11:49;;;;;;;1.38;0.60;;;;;;;8.16;43.07;100685.72;4926524;29;20064;-61
2022/10/06 05:14:34;;;;;;;3.10;0.80;;;;;;;8.32;45.67;100693.53;4910424;29;20238;-63
2022/10/06 05:17:19;;;;;;;3.67;0.82;;;;;;;8.59;45.15;100696.13;4926327;29;20092;-64
2022/10/06 05:20:00;;;;;;;3.83;0.90;;;;;;;8.73;43.92;100685.69;4924797;29;20373;-62
2022/10/06 05:25:37;;;;;;;1.88;0.90;;;;;;;8.93;43.51;100685.63;4926054;29;20047;-62
2022/10/06 05:28:47;;;;;;;3.67;1.00;;;;;;;8.79;45.89;100617.06;4926961;29;20070;-62
2022/10/06 05:31:33;;;;;;;4.43;1.30;;;;;;;9.37;44.60;100687.22;4899487;29;20420;-61
2022/10/06 05:34:14;;;;;;;0.80;0.50;;;;;;;9.40;43.04;100684.59;4925867;29;20087;-64
2022/10/06 05:37:08;;;;;;;1.48;0.85;;;;;;;9.32;42.36;100696.81;4925397;29;20213;-62
2022/10/06 05:39:47;;;;;;;1.77;0.70;;;;;;;9.23;40.69;100694.22;4926201;29;20052;-63
2022/10/06 05:42:36;;;;;;;2.28;0.65;;;;;;;9.17;41.15;100696.88;4926163;29;20443;-63
2022/10/06 05:48:40;;;;;;;0.68;0.60;;;;;;;9.23;44.46;100705.50;4913181;29;20048;-62
2022/10/06 05:51:28;;;;;;;3.70;0.80;;;;;;;9.00;43.58;100695.16;4925687;29;20043;-63
2022/10/06 05:54:11;;;;;;;1.40;0.47;;;;;;;8.83;42.20;100712.59;4925702;29;20431;-61
2022/10/06 05:57:04;;;;;;;4.38;0.80;;;;;;;8.01;44.36;100646.66;4910499;29;20044;-62
2022/10/06 06:00:00;;;;;;;3.78;0.70;;;;;;;7.81;43.31;100677.84;4925652;29;20119;-61
2022/10/06 06:06:36;;;;;;;4.80;0.60;;;;;;;7.66;45.99;100728.16;4894313;29;20333;-62
2022/10/06 06:09:35;;;;;;;3.42;0.70;;;;;;;7.36;45.88;100731.47;4850125;29;20061;-62
2022/10/06 06:12:32;;;;;;;3.92;0.90;;;;;;;7.17;46.59;100738.34;4882097;29;20055;-61
2022/10/06 06:21:22;;;;;;;1.85;0.70;;;;;;;7.40;47.66;100740.19;4895732;29;20251;-62
2022/10/06 06:24:07;;;;;;;2.03;0.77;;;;;;;7.28;46.64;100736.66;4893959;29;20295;-62
2022/10/06 06:27:01;;;;;;;1.60;0.63;;;;;;;7.27;47.59;100740.13;4898483;29;20052;-61
2022/10/06 06:29:43;;;;;;;3.38;0.77;;;;;;;7.39;47.61;100741.91;4895042;29;20159;-62
2022/10/06 06:32:21;;;;;;;1.60;0.70;;;;;;;7.47;47.85;100747.13;4860686;29;20056;-62
2022/10/06 06:35:04;;;;;;;1.52;0.65;;;;;;;7.08;46.98;100697.56;4916935;29;20088;-63
2022/10/06 06:37:51;;;;;;;3.33;0.85;;;;;;;7.27;45.44;100755.72;4925285;29;20059;-60
2022/10/06 06:40:24;;;;;;;1.17;0.75;;;;;;;7.12;46.01;100755.63;4869571;29;20048;-61
2022/10/06 06:43:02;;;;;;;8.18;0.80;;;;;;;7.13;46.98;100762.56;4925356;29;20278;-62
2022/10/06 06:46:02;;;;;;;0.55;0.55;;;;;;;7.09;45.86;100760.81;4924786;29;20076;-63
2022/10/06 06:51:48;;;;;;;2.70;0.80;;;;;;;6.90;47.07;100754.63;4925123;29;20306;-61
2022/10/06 06:54:39;;;;;;;5.43;2.13;;;;;;;6.98;48.17;100772.88;4899328;29;20078;-60
2022/10/06 06:57:27;;;;;;;4.05;0.70;;;;;;;6.94;46.68;100774.59;4924851;29;20062;-61
2022/10/06 07:00:07;;;;;;;3.80;1.73;;;;;;;6.88;47.38;100767.59;4924518;29;20083;-62
2022/10/06 07:02:59;;;;;;;2.35;0.70;;;;;;;6.82;47.05;100783.16;4924871;29;20383;-61
2022/10/06 07:05:39;;;;;;;1.70;0.70;;;;;;;6.77;47.31;100774.47;4923454;29;20051;-61
2022/10/06 07:11:24;;;;;;;2.80;0.93;;;;;;;6.60;47.85;100781.25;4924966;29;20066;-60
2022/10/06 07:14:12;;;;;;;1.75;0.77;;;;;;;6.55;49.61;100778.63;4924644;29;20043;-60
2022/10/06 07:26:20;;;;;;;12.20;2.97;;;;;;;6.19;53.74;100799.91;4924693;29;20056;-60
2022/10/06 07:29:14;;;;;;;9.40;2.85;;;;;;;6.13;53.78;100802.44;4908768;29;20059;-60
2022/10/06 07:31:54;;;;;;;5.55;1.60;;;;;;;5.98;53.70;100798.81;4921282;29;20070;-60
2022/10/06 07:34:40;;;;;;;7.10;2.40;;;;;;;5.91;54.86;100809.09;4924568;29;20058;-60
2022/10/06 07:37:29;;;;;;;11.40;2.90;;;;;;;5.83;55.92;100816.78;4910163;29;20080;-60
2022/10/06 07:40:15;;;;;;;7.25;2.40;;;;;;;5.72;55.89;100818.38;4923808;29;20108;-60
2022/10/06 07:43:02;;;;;;;3.78;1.30;;;;;;;5.32;55.94;100782.44;4885179;29;20052;-60
2022/10/06 07:45:53;;;;;;;2.63;1.40;;;;;;;5.43;56.57;100831.81;4924665;29;20063;-60
2022/10/06 07:52:31;;;;;;;21.08;13.38;;;;;;;5.22;58.56;100836.69;4922890;29;20074;-60
2022/10/06 07:58:01;;;;;;;10.93;1.88;;;;;;;4.99;60.36;100839.81;4919361;29;20048;-59
2022/10/06 08:00:44;;;;;;;8.27;1.10;;;;;;;4.80;59.72;100842.97;4924635;29;20068;-60
2022/10/06 08:03:26;;;;;;;14.95;1.25;;;;;;;4.70;60.83;100853.16;4924093;29;20044;-60
2022/10/06 08:06:14;;;;;;;9.43;1.10;;;;;;;4.40;61.43;100821.59;4873502;29;20055;-60
2022/10/06 08:11:47;;;;;;;3.58;0.90;;;;;;;4.49;61.33;100857.97;4924432;29;20083;-60
2022/10/06 08:17:30;;;;;;;2.40;1.00;;;;;;;4.33;62.65;100862.84;4924091;29;20051;-60
2022/10/06 08:20:24;;;;;;;1.48;0.80;;;;;;;4.20;61.88;100858.31;4924409;29;20066;-60
2022/10/06 08:23:11;;;;;;;2.60;0.90;;;;;;;4.07;61.66;100864.97;4924182;29;20128;-60
2022/10/06 08:25:55;;;;;;;5.63;0.98;;;;;;;3.95;61.00;100874.19;4922234;29;20091;-60
2022/10/06 08:28:48;;;;;;;53.33;3.13;;;;;;;3.85;62.37;100883.47;4923896;29;20052;-60
2022/10/06 08:32:05;;;;;;;51.38;3.80;;;;;;;3.75;64.20;100887.56;4927917;29;20203;-60
2022/10/06 08:34:56;;;;;;;67.53;3.42;;;;;;;3.57;64.51;100897.50;4877578;29;20052;-60
2022/10/06 08:37:40;;;;;;;56.28;5.13;;;;;;;3.44;65.86;100906.69;4927141;29;20048;-60
2022/10/06 08:40:37;;;;;;;25.15;2.05;;;;;;;2.86;66.18;100828.72;4926762;29;20127;-60
2022/10/06 08:43:26;;;;;;;13.48;1.70;;;;;;;3.26;67.35;100907.13;4927306;29;20051;-60
2022/10/06 08:46:13;;;;;;;6.88;1.77;;;;;;;3.23;68.26;100912.22;4926733;29;20111;-60
2022/10/06 08:48:49;;;;;;;2.42;1.15;;;;;;;3.16;68.07;100931.00;4910162;29;20082;-60
2022/10/06 08:51:48;;;;;;;2.10;0.88;;;;;;;3.17;68.48;100940.47;4908810;29;20059;-60
2022/10/06 08:57:40;;;;;;;24.98;1.92;;;;;;;2.92;68.86;100952.78;4926680;29;20068;-60
2022/10/06 09:00:20;;;;;;;6.85;1.70;;;;;;;2.82;69.03;100945.63;4926727;29;20307;-60
2022/10/06 09:06:22;;;;;;;46.58;23.50;;;;;;;2.40;70.14;100956.56;4927135;29;20056;-60
2022/10/06 09:09:16;;;;;;;41.47;24.30;;;;;;;2.12;71.62;100970.34;4927015;29;20360;-60
2022/10/06 09:15:07;;;;;;;15.18;4.32;;;;;;;1.75;74.03;100974.41;4914304;29;20384;-60
2022/10/06 09:17:59;;;;;;;25.42;14.70;;;;;;;1.62;74.57;100947.41;4926207;29;20111;-59
2022/10/06 09:20:49;;;;;;;17.55;10.52;;;;;;;1.59;75.60;100949.88;4926521;29;20203;-59
2022/10/06 09:26:15;;;;;;;10.38;5.20;;;;;;;1.40;76.33;100957.84;4926230;29;20067;-60
2022/10/06 09:28:53;;;;;;;4.88;2.80;;;;;;;1.33;76.58;100973.94;4926447;29;20119;-60
2022/10/06 09:31:41;;;;;;;7.88;2.10;;;;;;;0.65;76.53;100868.78;4909187;29;20086;-60
2022/10/06 09:34:33;;;;;;;5.30;2.53;;;;;;;1.13;76.84;100956.13;4926732;29;20044;-60
2022/10/06 09:37:24;;;;;;;7.05;2.70;;;;;;;0.55;76.42;100887.28;4911104;29;20056;-60
2022/10/06 09:40:01;;;;;;;8.00;2.85;;;;;;;0.99;77.03;100977.94;4926142;29;20261;-60
2022/10/06 09:43:04;;;;;;;5.03;2.50;;;;;;;0.86;76.89;100992.09;4925356;29;20052;-60
2022/10/06 09:45:53;;;;;;;5.68;2.35;;;;;;;0.60;77.11;100968.03;4924091;29;20067;-60
2022/10/06 09:48:46;;;;;;;3.70;1.90;;;;;;;0.67;77.41;100985.44;4925980;29;20059;-60
2022/10/06 09:51:32;;;;;;;4.38;1.58;;;;;;;0.59;77.22;100977.44;4924013;29;20056;-60
2022/10/06 09:54:27;;;;;;;3.45;1.60;;;;;;;0.46;77.39;100984.69;4925869;29;20048;-60
2022/10/06 09:57:23;;;;;;;2.70;1.20;;;;;;;0.51;77.96;101003.72;4925646;29;20062;-60
2022/10/06 10:00:13;;;;;;;4.72;1.42;;;;;;;0.43;77.94;101004.31;4867725;29;20128;-62
2022/10/06 10:03:03;;;;;;;3.15;1.52;;;;;;;0.13;77.97;100959.50;4867192;29;20045;-61
2022/10/06 10:06:01;;;;;;;2.22;1.17;;;;;;;0.55;78.21;101008.13;4867639;29;20053;-60
2022/10/06 10:08:48;;;;;;;2.15;1.45;;;;;;;0.38;78.54;100962.13;4867265;29;20117;-60
2022/10/06 10:15:26;;;;;;;9.55;6.18;;;;;;;0.93;78.38;101024.06;4832966;29;20090;-60
2022/10/06 10:18:16;;;;;;;10.80;5.07;;;;;;;0.95;77.91;101018.16;4853212;29;20060;-61
2022/10/06 10:20:59;;;;;;;7.57;4.03;;;;;;;1.02;78.02;101029.53;4878860;29;20057;-60
2022/10/06 10:24:02;;;;;;;7.35;4.38;;;;;;;1.20;77.92;101018.97;4884592;29;20057;-61
2022/10/06 10:26:57;;;;;;;26.58;12.40;;;;;;;1.37;78.23;101011.81;4870410;29;20064;-61
2022/10/06 10:30:04;;;;;;;17.25;8.43;;;;;;;1.55;77.57;101030.47;4859266;29;20063;-60
2022/10/06 10:33:19;;;;;;;5.82;2.35;;;;;;;1.60;76.59;101021.19;4883700;29;20061;-60
2022/10/06 10:36:12;;;;;;;2.08;1.15;;;;;;;1.67;76.79;101030.88;4872330;29;20052;-61
2022/10/06 10:39:00;;;;;;;5.18;1.85;;;;;;;1.63;77.07;101034.16;4884915;29;20063;-61
2022/10/06 10:44:55;;;;;;;;;;;;;;;;;;;;;
2022/10/06 10:48:12;;;;;;;8.90;2.30;;;;;;;1.63;77.61;101041.88;4928570;28;20059;-60
2022/10/06 10:51:06;;;;;;;3.67;1.70;;;;;;;1.47;78.09;101045.66;4911312;29;20055;-61
2022/10/06 10:53:52;;;;;;;7.93;2.08;;;;;;;1.56;78.56;101039.94;4946898;29;20114;-61
2022/10/06 10:56:47;;;;;;;4.75;2.30;;;;;;;1.67;79.21;101043.75;4950337;29;20047;-61
2022/10/06 10:59:41;;;;;;;44.08;11.30;;;;;;;1.72;79.46;101047.34;4948343;29;20231;-62
2022/10/06 11:02:38;;;;;;;35.75;10.77;;;;;;;1.76;79.04;101052.59;4948420;29;20062;-61
2022/10/06 11:05:37;;;;;;;29.13;8.57;;;;;;;1.82;78.28;101063.06;4948050;29;20059;-61
2022/10/06 11:08:29;;;;;;;23.65;7.50;;;;;;;1.84;77.49;101061.44;4949194;29;20127;-61
2022/10/06 11:11:11;;;;;;;29.38;9.50;;;;;;;1.82;77.08;101045.03;4946937;29;20131;-60
2022/10/06 11:14:25;;;;;;;38.20;10.77;;;;;;;1.99;78.12;101056.75;4943784;29;20051;-60
2022/10/06 11:17:17;;;;;;;15.40;3.90;;;;;;;2.11;78.53;101057.13;4943668;29;20071;-61
2022/10/06 11:20:07;;;;;;;16.90;6.00;;;;;;;2.16;78.60;101063.31;4896271;29;20269;-61
2022/10/06 11:22:58;;;;;;;12.65;4.50;;;;;;;1.78;79.06;100978.78;4945206;29;20078;-61
2022/10/06 11:25:43;;;;;;;9.73;3.22;;;;;;;2.30;78.46;101057.72;4946027;29;20051;-60
2022/10/06 11:28:35;;;;;;;17.98;3.67;;;;;;;2.36;78.64;101052.72;4945302;29;20466;-61
2022/10/06 11:31:24;;;;;;;10.32;3.78;;;;;;;2.22;78.27;101028.22;4931004;29;20098;-61
2022/10/06 11:34:13;;;;;;;15.45;2.83;;;;;;;2.37;77.71;101049.28;4945941;29;20115;-61
2022/10/06 11:37:06;;;;;;;9.80;3.63;;;;;;;2.19;77.75;101012.66;4945578;29;20126;-61
2022/10/06 11:40:27;;;;;;;11.48;3.20;;;;;;;2.37;78.00;101033.81;4945730;29;20210;-61
2022/10/06 11:43:28;;;;;;;8.50;3.35;;;;;;;2.44;78.39;101046.06;4944946;29;20059;-60
2022/10/06 11:46:23;;;;;;;11.77;3.92;;;;;;;2.50;78.14;101056.59;4945502;29;20079;-61
2022/10/06 11:49:50;;;;;;;6.60;3.33;;;;;;;2.56;77.74;101056.75;4945640;29;20061;-61
2022/10/06 11:53:00;;;;;;;11.10;4.03;;;;;;;2.44;77.39;101058.97;4944765;29;20478;-61
2022/10/06 11:55:40;;;;;;;11.43;4.10;;;;;;;2.34;77.86;101054.38;4887189;29;20235;-61
2022/10/06 11:58:28;;;;;;;9.10;3.88;;;;;;;2.31;78.11;101065.47;4887442;29;20094;-60
2022/10/06 12:01:56;;;;;;;10.70;4.03;;;;;;;2.26;78.56;101061.00;4860960;29;20057;-60
2022/10/06 12:04:33;;;;;;;17.10;5.25;;;;;;;2.23;79.08;101060.94;4889100;29;20087;-60
2022/10/06 12:07:14;;;;;;;25.52;6.30;;;;;;;2.28;79.30;101069.69;4844454;29;20074;-61
2022/10/06 12:09:55;;;;;;;14.00;6.22;;;;;;;2.20;79.21;101071.13;4877080;29;20064;-61
2022/10/06 12:13:10;;;;;;;18.30;6.97;;;;;;;2.31;79.82;101069.75;4884413;29;20067;-61
2022/10/06 12:16:27;;;;;;;30.35;7.57;;;;;;;2.35;80.21;101076.78;4890460;29;20105;-60
2022/10/06 12:19:28;;;;;;;20.85;8.57;;;;;;;2.44;80.45;101077.03;4890415;29;20049;-60
2022/10/06 12:22:31;;;;;;;23.95;8.93;;;;;;;2.52;81.28;101088.47;4908245;29;20064;-60
2022/10/06 12:25:23;;;;;;;18.38;8.30;;;;;;;2.48;80.51;101083.16;4880532;29;20052;-61
2022/10/06 12:28:24;;;;;;;33.70;12.25;;;;;;;2.35;81.30;101050.97;4967785;28;20097;-61
2022/10/06 12:31:19;;;;;;;26.63;10.45;;;;;;;2.63;80.95;101082.75;4924687;29;20054;-60
2022/10/06 12:33:55;;;;;;;33.28;14.40;;;;;;;2.82;80.80;101105.63;4967726;29;20059;-60
2022/10/06 12:39:30;;;;;;;31.60;14.23;;;;;;;2.84;79.53;101098.81;4967905;29;20114;-61
2022/10/06 12:45:42;;;;;;;40.53;13.57;;;;;;;2.87;80.42;101098.94;5010097;27;5477714;-62
2022/10/06 12:48:31;;;;;;;30.45;12.63;;;;;;;2.81;80.52;101084.13;5182538;27;20099;-62
2022/10/06 12:51:34;;;;;;;33.35;13.73;;;;;;;2.85;80.38;101079.94;5138060;27;20118;-61
2022/10/06 12:54:21;;;;;;;28.10;12.35;;;;;;;2.49;80.28;101013.53;5183220;27;20050;-60
2022/10/06 12:57:30;;;;;;;27.52;11.55;;;;;;;2.82;79.82;101066.94;5183502;27;20343;-61
2022/10/06 13:00:48;;;;;;;39.45;13.43;;;;;;;2.89;79.75;101080.88;5180662;27;20050;-61
2022/10/06 13:03:56;;;;;;;26.13;10.95;;;;;;;2.88;79.68;101069.69;5183122;27;20054;-61
2022/10/06 13:06:40;;;;;;;26.63;11.52;;;;;;;2.90;79.38;101083.53;5183008;27;20095;-61
2022/10/06 13:09:28;;;;;;;34.03;11.60;;;;;;;2.39;78.71;101006.38;5182852;27;20054;-60
2022/10/06 13:12:35;;;;;;;24.73;9.60;;;;;;;2.97;79.24;101080.28;5182924;27;20113;-59
2022/10/06 13:15:26;;;;;;;22.77;9.63;;;;;;;2.99;79.38;101073.44;5179718;27;20046;-59
2022/10/06 13:18:23;;;;;;;22.15;8.60;;;;;;;3.13;78.87;101075.53;5179582;27;20054;-59
2022/10/06 13:21:07;;;;;;;20.48;8.30;;;;;;;3.06;78.47;101069.31;5183161;27;20207;-59
2022/10/06 13:23:52;;;;;;;22.23;8.77;;;;;;;3.11;78.19;101061.69;5116543;27;20625;-59
2022/10/06 13:26:33;;;;;;;20.65;8.32;;;;;;;2.76;78.23;101008.28;5182887;27;20054;-61
2022/10/06 13:29:23;;;;;;;18.42;8.55;;;;;;;3.05;78.51;101056.38;5181543;27;20071;-61
2022/10/06 13:32:29;;;;;;;17.70;7.57;;;;;;;3.07;78.73;101065.91;5181937;27;20062;-61
2022/10/06 13:35:19;;;;;;;16.58;8.10;;;;;;;2.48;78.28;100957.63;5182550;27;20066;-60
2022/10/06 13:38:14;;;;;;;17.60;6.80;;;;;;;3.07;78.22;101045.25;5182428;27;20091;-60
2022/10/06 13:41:10;;;;;;;17.83;6.35;;;;;;;3.21;77.76;101053.34;5182705;27;20054;-60
2022/10/06 13:43:59;;;;;;;15.25;5.97;;;;;;;3.31;77.06;101050.19;5146381;27;20066;-59
2022/10/06 13:46:47;;;;;;;15.10;6.10;;;;;;;3.32;77.16;101044.19;5182551;27;20077;-60
2022/10/06 13:49:41;;;;;;;15.65;6.20;;;;;;;3.43;76.43;101055.66;5182633;27;20220;-60
2022/10/06 13:52:37;;;;;;;14.70;5.97;;;;;;;3.45;76.39;101058.28;5181785;27;20286;-60
2022/10/06 13:55:20;;;;;;;20.23;7.55;;;;;;;3.46;76.77;101054.84;5176885;27;20034;-60
2022/10/06 13:58:16;;;;;;;16.17;6.82;;;;;;;3.37;76.81;101024.53;5168122;27;20107;-60
2022/10/06 14:00:59;;;;;;;17.10;5.53;;;;;;;3.37;76.31;101034.84;5168219;27;20055;-60
2022/10/06 14:04:28;;;;;;;14.82;5.10;;;;;;;3.40;75.04;101040.09;5167848;27;20093;-60
2022/10/06 14:07:17;;;;;;;7.25;2.25;;;;;;;3.48;72.72;101042.84;5165856;27;20248;-60
2022/10/06 14:09:56;;;;;;;8.05;3.05;;;;;;;3.58;71.99;101033.63;5168063;27;20077;-60
2022/10/06 14:12:33;;;;;;;5.25;2.55;;;;;;;3.68;70.99;101020.94;5167824;27;20046;-60
2022/10/06 14:15:26;;;;;;;6.82;1.90;;;;;;;3.79;69.71;101007.41;5099348;27;20063;-60
2022/10/06 14:18:04;;;;;;;4.85;2.03;;;;;;;3.92;68.79;101018.91;5120567;27;20081;-60
2022/10/06 14:21:01;;;;;;;5.30;1.90;;;;;;;3.99;68.33;101015.63;5114787;27;20079;-59
2022/10/06 14:23:55;;;;;;;4.20;1.77;;;;;;;4.03;67.86;101012.28;5167704;27;20249;-59
2022/10/06 14:27:11;;;;;;;5.70;2.00;;;;;;;4.09;68.02;101008.13;5166158;27;20106;-60
2022/10/06 14:29:47;;;;;;;5.03;2.17;;;;;;;3.99;67.73;100985.44;5077891;27;20099;-60
2022/10/06 14:32:33;;;;;;;5.88;2.20;;;;;;;4.13;67.57;101014.22;5166754;27;20118;-60
2022/10/06 14:38:07;;;;;;;4.82;1.98;;;;;;;4.16;67.19;101014.28;5165452;27;20058;-60
2022/10/06 14:40:55;;;;;;;8.82;2.00;;;;;;;4.09;67.34;100997.78;5164348;27;20057;-60
2022/10/06 14:43:39;;;;;;;3.38;1.80;;;;;;;4.22;67.40;101014.41;5166236;27;20118;-60
2022/10/06 14:46:28;;;;;;;3.63;1.52;;;;;;;4.21;67.19;101007.47;5164738;27;20050;-59
2022/10/06 14:49:17;;;;;;;3.55;1.50;;;;;;;4.26;67.24;101016.22;5163677;27;20046;-60
2022/10/06 14:54:41;;;;;;;3.25;1.27;;;;;;;4.33;67.60;101023.28;5164963;27;20051;-61
2022/10/06 14:57:20;;;;;;;5.63;1.45;;;;;;;4.33;67.47;101023.28;5164277;27;20043;-60
2022/10/06 15:00:04;;;;;;;3.50;1.30;;;;;;;4.35;67.34;101022.44;5164132;27;20050;-61
2022/10/06 15:02:54;;;;;;;4.97;1.42;;;;;;;3.79;68.26;100941.06;5165825;27;20379;-61
2022/10/06 15:05:31;;;;;;;5.22;1.42;;;;;;;4.30;69.00;101033.56;5164711;27;20127;-60
2022/10/06 15:08:17;;;;;;;3.25;1.60;;;;;;;4.28;69.67;101027.47;5163343;27;20050;-61
2022/10/06 15:11:06;;;;;;;2.72;1.50;;;;;;;4.22;69.31;101040.28;5165486;27;20094;-61
2022/10/06 15:14:02;;;;;;;4.82;1.85;;;;;;;4.00;68.82;101043.25;5117855;27;20067;-59
2022/10/06 15:16:54;;;;;;;5.45;2.97;;;;;;;3.63;71.12;101063.03;5110386;27;20114;-61
2022/10/06 15:19:44;;;;;;;7.75;3.47;;;;;;;3.48;72.34;101048.03;5163668;27;20148;-61
2022/10/06 15:22:20;;;;;;;7.00;3.70;;;;;;;3.54;74.07;101055.03;5163156;27;20073;-61